Ft Sturla — IBXV — position and weather

sailwx.info

Track history (hours):
 
Tides and Currents Weather Stations Pressure Air Temp Water Temp Dewpoint Dewpoint Depression Visibility Wind Speed Wind Dir Waves Ship Positions

Ft Sturla

Last reported at 2014-Nov-15 12:18 UTC. Time now 2014-Nov-23 16:15 UTC.
Position N 36°50' E 023°36'.
Warning: this ship's position is 8 days out of date.

Length 120 m; draft 5.3 m.

Type: Tanker. MMSI: 247282200.

Date/timePositionNaut miles runAvg speedWind from/ knotsBaromVisibWave heightAir tempDewpointWater temp
2014-Nov-15 12:18N 36°50' E 023°36'1810.2
2014-Nov-15 10:33N 37°03' E 023°51'2110.8
2014-Nov-15 08:33N 37°19' E 024°09'2412.2
2014-Nov-15 06:33N 37°38' E 024°29'1212.5
2014-Nov-15 05:33N 37°50' E 024°34'  
2014-Nov-13 00:24N 40°57' E 028°52'0 0.1
2014-Nov-12 23:28N 40°57' E 028°53'8 8.7
2014-Nov-12 22:30N 40°52' E 029°01'1212.2
2014-Nov-12 21:33N 40°44' E 029°12'7 7.0
2014-Nov-12 20:33N 40°42' E 029°21'2 2.2
2014-Nov-12 19:26N 40°43' E 029°18'1 0.8
2014-Nov-12 18:26N 40°43' E 029°19'2 2.8
2014-Nov-12 17:33N 40°43' E 029°23'6 6.0
2014-Nov-12 16:33N 40°43' E 029°15'5 4.9
2014-Nov-12 15:33N 40°43' E 029°21'5 0.2
2014-Nov-11 10:28N 40°42' E 029°27'  
Track history (hours):
 
Tides and Currents Weather Stations Pressure Air Temp Water Temp Dewpoint Dewpoint Depression Visibility Wind Speed Wind Dir Waves Ship Positions

Ft Sturla

Last reported at 2014-Nov-15 12:18 UTC. Time now 2014-Nov-23 16:15 UTC.
Position N 36°50' E 023°36'.
Warning: this ship's position is 8 days out of date.

Length 120 m; draft 5.3 m.

Type: Tanker. MMSI: 247282200.

Date/timePositionNaut miles runAvg speedWind from/ knotsBaromVisibWave heightAir tempDewpointWater temp
2014-Nov-15 12:18N 36°50' E 023°36'1810.2
2014-Nov-15 10:33N 37°03' E 023°51'2110.8
2014-Nov-15 08:33N 37°19' E 024°09'2412.2
2014-Nov-15 06:33N 37°38' E 024°29'1212.5
2014-Nov-15 05:33N 37°50' E 024°34'  
2014-Nov-13 00:24N 40°57' E 028°52'0 0.1
2014-Nov-12 23:28N 40°57' E 028°53'8 8.7
2014-Nov-12 22:30N 40°52' E 029°01'1212.2
2014-Nov-12 21:33N 40°44' E 029°12'7 7.0
2014-Nov-12 20:33N 40°42' E 029°21'2 2.2
2014-Nov-12 19:26N 40°43' E 029°18'1 0.8
2014-Nov-12 18:26N 40°43' E 029°19'2 2.8
2014-Nov-12 17:33N 40°43' E 029°23'6 6.0
2014-Nov-12 16:33N 40°43' E 029°15'5 4.9
2014-Nov-12 15:33N 40°43' E 029°21'5 0.2
2014-Nov-11 10:28N 40°42' E 029°27'  

Dump ship's entire track history